Waldorf, MD (20601)

12:19 AM EST en Febrero 28, 2015 (GMT -0500)
Sentry Woods | Change Station
CLOSE
Current Station
Estación meteorológica personal
Location: Waldorf, MD
Altura: 210 ft
Estaciones meteorológicas cercanas

Alt 210 ft 38.61 °N, 76.88 °W | Updated 13 minutes ago

Despejado
Despejado
21.0 ° F
Sensación térmica 21 ° F
N
0.0
Viento Variable Viento desde Oeste

Hoy
Alta -- | Baja -- ° F
--% Posibilidad de precipitaciones
Ayer
Alta -- | Baja -- ° F
Precip. -- pul
6:41 AM 5:59 PM
Gibosa creciente, 74% visible
Presión 30.69 pul
Visibilidad 10.0 Millas
Nubes Despejado
Vientos helados 21 ° F
Punto de rocío -25 ° F
Humedad 11%
Precipitaciones 0.00 pul
Espesor de la nieve No disponible.
UV 0 de una escala de 12
Polen 1.60 de una escala de 12
Calidad del aire No disponible.
Flu Activity No disponible.
METAR KADW 280458Z AUTO 36007KT 10SM CLR M07/M15 A3065 RMK AO2 SLP390 T10671155 400061067 $

More Conditions Fewer Conditions

Presión 30.69 pul
Visibilidad 10.0 Millas
Nubes Despejado
Vientos helados 21 ° F
Punto de rocío -25 ° F
Humedad 11%
Precipitaciones 0.00 pul
Espesor de la nieve No disponible.
UV 0 de una escala de 12
Polen 1.60 de una escala de 12
Calidad del aire No disponible.
Flu Activity No disponible.
METAR KADW 280458Z AUTO 36007KT 10SM CLR M07/M15 A3065 RMK AO2 SLP390 T10671155 400061067 $

More Conditions Fewer Conditions

10-Day Weather Forecast

Almanac

Astronomía

Feb. 28, 2015 Salida Puesta
Hora real
Crepúsculo civil
Crepúsculo náutico
Crepúsculo astronómico
Luna
Horas de luz
Horas de luz
Tomorrow will be .
, % of the Moon is Illuminated

Extremos de hoy

Máximos del estado Bajos del estado

Community

WunderPhotos

Upload Photos

1,800,971 ¡fotos cargadas!

WunderBlogs® & News

Nearby

Calidad del aire

  Calidad del aire Índice AQ Contaminante
Not available.

Grosos de nieve

Estación Profundido Altura

Actividad de terremotos

Ciudad Distance Mag. Tiempo y dato
Magnitud mínima muestra es 2,5.

Temperaturas de aguas costeras

Lugar Temperatura

Estaciones meteorológicas cercanas